Time;durP1;ratioP1;P1;durP2;ratioP2;P2;SDS_P1;SDS_P2;PMS_P1;PMS_P2;Temp;Humidity;BMP_temperature;BMP_pressure;BME280_temperature;BME280_humidity;BME280_pressure;Samples;Min_cycle;Max_cycle;Signal;HPM_P1;HPM_P2
2023/10/06 00:02:28;;;;;;;;;;;;;;;;;;6213187;22;19939;-86
2023/10/06 00:04:54;;;;;;;;;;;;;;;;;;6238870;22;20304;-86
2023/10/06 00:07:21;;;;;;;;;;;;;;;;;;6248275;22;19927;-87
2023/10/06 00:09:47;;;;;;;;;;;;;;;;;;6237246;22;19919;-87
2023/10/06 00:12:13;;;;;;;;;;;;;;;;;;6214992;22;19919;-86
2023/10/06 00:14:39;;;;;;;;;;;;;;;;;;6238142;22;20243;-87
2023/10/06 00:17:09;;;;;;;;;;;;;;;;;;6213410;22;20411;-87
2023/10/06 00:19:37;;;;;;;;;;;;;;;;;;6236559;22;19936;-86
2023/10/06 00:24:36;;;;;;;;;;;;;;;;;;6237044;22;19919;-86
2023/10/06 00:27:10;;;;;;;;;;;;;;;;;;6239729;22;20001;-86
2023/10/06 00:29:37;;;;;;;;;;;;;;;;;;6212140;22;19915;-86
2023/10/06 00:32:21;;;;;;;;;;;;;;;;;;6212859;22;20320;-86
2023/10/06 00:34:47;;;;;;;;;;;;;;;;;;6237768;22;19915;-87
2023/10/06 00:37:14;;;;;;;;;;;;;;;;;;6214380;22;20380;-86
2023/10/06 00:39:42;;;;;;;;;;;;;;;;;;6212397;22;20571;-89
2023/10/06 00:42:08;;;;;;;;;;;;;;;;;;6213408;22;19927;-89
2023/10/06 00:44:35;;;;;;;;;;;;;;;;;;6211848;22;19919;-89
2023/10/06 00:47:05;;;;;;;;;;;;;;;;;;6213662;22;19973;-86
2023/10/06 00:49:31;;;;;;;;;;;;;;;;;;6210552;22;19919;-87
2023/10/06 00:51:59;;;;;;;;;;;;;;;;;;6214305;22;19969;-87
2023/10/06 00:54:25;;;;;;;;;;;;;;;;;;6239669;22;19915;-87
2023/10/06 00:56:51;;;;;;;;;;;;;;;;;;6237819;22;19919;-87
2023/10/06 00:59:17;;;;;;;;;;;;;;;;;;6239768;22;19930;-87
2023/10/06 01:01:43;;;;;;;;;;;;;;;;;;6238940;22;19927;-87
2023/10/06 01:04:16;;;;;;;;;;;;;;;;;;6212623;22;19919;-87
2023/10/06 01:06:42;;;;;;;;;;;;;;;;;;6263413;22;19973;-87
2023/10/06 01:11:38;;;;;;;;;;;;;;;;;;6235011;22;19923;-88
2023/10/06 01:14:06;;;;;;;;;;;;;;;;;;6237563;22;19926;-87
2023/10/06 01:16:35;;;;;;;;;;;;;;;;;;6211257;22;19990;-87
2023/10/06 01:19:14;;;;;;;;;;;;;;;;;;6234685;22;19919;-87
2023/10/06 01:21:40;;;;;;;;;;;;;;;;;;6210206;22;19994;-87
2023/10/06 01:24:12;;;;;;;;;;;;;;;;;;6212899;22;20002;-87
2023/10/06 01:26:41;;;;;;;;;;;;;;;;;;6210380;22;20006;-87
2023/10/06 01:29:10;;;;;;;;;;;;;;;;;;6212926;22;20431;-87
2023/10/06 01:31:39;;;;;;;;;;;;;;;;;;6210832;22;19942;-88
2023/10/06 01:34:08;;;;;;;;;;;;;;;;;;6214265;22;19926;-87
2023/10/06 01:36:34;;;;;;;;;;;;;;;;;;6236109;22;19958;-87
2023/10/06 01:39:04;;;;;;;;;;;;;;;;;;6239005;22;19997;-87
2023/10/06 01:41:34;;;;;;;;;;;;;;;;;;6211838;22;19916;-87
2023/10/06 01:44:00;;;;;;;;;;;;;;;;;;6214397;22;19915;-87
2023/10/06 01:46:26;;;;;;;;;;;;;;;;;;6237790;22;19926;-87
2023/10/06 01:48:52;;;;;;;;;;;;;;;;;;6211256;22;19965;-87
2023/10/06 01:51:19;;;;;;;;;;;;;;;;;;6212624;22;19923;-87
2023/10/06 01:53:45;;;;;;;;;;;;;;;;;;6235651;22;20430;-87
2023/10/06 01:56:13;;;;;;;;;;;;;;;;;;6213482;22;19963;-87
2023/10/06 01:58:39;;;;;;;;;;;;;;;;;;6236080;22;19943;-88
2023/10/06 02:01:09;;;;;;;;;;;;;;;;;;6239058;22;19926;-87
2023/10/06 02:03:38;;;;;;;;;;;;;;;;;;6210863;22;19926;-87
2023/10/06 02:06:04;;;;;;;;;;;;;;;;;;6215296;22;19930;-87
2023/10/06 02:08:31;;;;;;;;;;;;;;;;;;6235463;22;19919;-88
2023/10/06 02:11:01;;;;;;;;;;;;;;;;;;6237762;22;20104;-87
2023/10/06 02:13:29;;;;;;;;;;;;;;;;;;6213668;22;20312;-87
2023/10/06 02:15:59;;;;;;;;;;;;;;;;;;6237582;22;19918;-87
2023/10/06 02:18:35;;;;;;;;;;;;;;;;;;6211948;22;19990;-87
2023/10/06 02:21:02;;;;;;;;;;;;;;;;;;6233697;22;19931;-87
2023/10/06 02:23:28;;;;;;;;;;;;;;;;;;6211631;22;19923;-87
2023/10/06 02:25:54;;;;;;;;;;;;;;;;;;6234421;22;20029;-87
2023/10/06 02:28:20;;;;;;;;;;;;;;;;;;6209752;22;19923;-87
2023/10/06 02:30:51;;;;;;;;;;;;;;;;;;6209614;22;19919;-87
2023/10/06 02:33:17;;;;;;;;;;;;;;;;;;6210907;22;20346;-87
2023/10/06 02:35:46;;;;;;;;;;;;;;;;;;6208808;22;19926;-87
2023/10/06 02:38:12;;;;;;;;;;;;;;;;;;6238336;22;19973;-87
2023/10/06 02:40:48;;;;;;;;;;;;;;;;;;6235933;22;20336;-88
2023/10/06 02:43:20;;;;;;;;;;;;;;;;;;6212051;22;19923;-88
2023/10/06 02:45:46;;;;;;;;;;;;;;;;;;6211066;22;19930;-88
2023/10/06 02:48:17;;;;;;;;;;;;;;;;;;6213958;22;19915;-87
2023/10/06 02:50:50;;;;;;;;;;;;;;;;;;6212728;22;19968;-88
2023/10/06 02:53:20;;;;;;;;;;;;;;;;;;6237461;22;19950;-87
2023/10/06 02:55:49;;;;;;;;;;;;;;;;;;6209104;22;19915;-88
2023/10/06 02:58:33;;;;;;;;;;;;;;;;;;6211552;22;19919;-87
2023/10/06 03:00:59;;;;;;;;;;;;;;;;;;6235290;22;19919;-87
2023/10/06 03:03:29;;;;;;;;;;;;;;;;;;6209265;22;19962;-87
2023/10/06 03:05:56;;;;;;;;;;;;;;;;;;6207464;22;19930;-87
2023/10/06 03:08:25;;;;;;;;;;;;;;;;;;6236158;22;19926;-87
2023/10/06 03:10:51;;;;;;;;;;;;;;;;;;6233951;22;20803;-87
2023/10/06 03:13:17;;;;;;;;;;;;;;;;;;6212287;22;19919;-87
2023/10/06 03:15:46;;;;;;;;;;;;;;;;;;6210396;22;19926;-87
2023/10/06 03:18:12;;;;;;;;;;;;;;;;;;6236696;22;20001;-87
2023/10/06 03:21:22;;;;;;;;;;;;;;;;;;6234968;22;19987;-87
2023/10/06 03:23:38;;;;;;;;;;;;;;;;;;6221137;22;19994;-87
2023/10/06 03:26:09;;;;;;;;;;;;;;;;;;6239772;22;20388;-87
2023/10/06 03:28:48;;;;;;;;;;;;;;;;;;6238298;22;19915;-87
2023/10/06 03:33:44;;;;;;;;;;;;;;;;;;6237671;22;19915;-87
2023/10/06 03:36:11;;;;;;;;;;;;;;;;;;6214978;22;19919;-87
2023/10/06 03:38:42;;;;;;;;;;;;;;;;;;6212878;22;19915;-88
2023/10/06 03:43:45;;;;;;;;;;;;;;;;;;6240289;22;19930;-87
2023/10/06 03:46:11;;;;;;;;;;;;;;;;;;6215159;22;20002;-87
2023/10/06 03:48:38;;;;;;;;;;;;;;;;;;6212713;22;19919;-87
2023/10/06 03:51:05;;;;;;;;;;;;;;;;;;6216683;22;19968;-87
2023/10/06 03:53:32;;;;;;;;;;;;;;;;;;6238656;22;20413;-87
2023/10/06 03:55:58;;;;;;;;;;;;;;;;;;6239373;22;19915;-87
2023/10/06 03:58:31;;;;;;;;;;;;;;;;;;6266400;22;19972;-87
2023/10/06 04:00:58;;;;;;;;;;;;;;;;;;6239161;22;20014;-87
2023/10/06 04:03:24;;;;;;;;;;;;;;;;;;6237927;22;19976;-87
2023/10/06 04:05:50;;;;;;;;;;;;;;;;;;6264365;22;19923;-87
2023/10/06 04:08:16;;;;;;;;;;;;;;;;;;6239480;22;19957;-87
2023/10/06 04:10:42;;;;;;;;;;;;;;;;;;6212587;22;19926;-87
2023/10/06 04:13:08;;;;;;;;;;;;;;;;;;6213709;22;19919;-87
2023/10/06 04:15:38;;;;;;;;;;;;;;;;;;6209672;22;19919;-87
2023/10/06 04:18:03;;;;;;;;;;;;;;;;;;6213971;22;19923;-87
2023/10/06 04:20:29;;;;;;;;;;;;;;;;;;6236488;22;19924;-87
2023/10/06 04:23:01;;;;;;;;;;;;;;;;;;6212236;22;20339;-87
2023/10/06 04:25:28;;;;;;;;;;;;;;;;;;6237974;22;20018;-87
2023/10/06 04:27:54;;;;;;;;;;;;;;;;;;6211530;22;19923;-87
2023/10/06 04:30:21;;;;;;;;;;;;;;;;;;6212291;22;19977;-87
2023/10/06 04:32:47;;;;;;;;;;;;;;;;;;6236366;22;19919;-87
2023/10/06 04:35:21;;;;;;;;;;;;;;;;;;6212119;22;19919;-87
2023/10/06 04:37:47;;;;;;;;;;;;;;;;;;6210069;22;20060;-87
2023/10/06 04:40:17;;;;;;;;;;;;;;;;;;6238356;22;19922;-87
2023/10/06 04:42:43;;;;;;;;;;;;;;;;;;6235550;22;19977;-87
2023/10/06 04:45:12;;;;;;;;;;;;;;;;;;6239625;22;20411;-87
2023/10/06 04:47:40;;;;;;;;;;;;;;;;;;6263154;22;19923;-87
2023/10/06 04:50:09;;;;;;;;;;;;;;;;;;6213999;22;19990;-87
2023/10/06 04:52:35;;;;;;;;;;;;;;;;;;6210604;22;19919;-87
2023/10/06 04:55:03;;;;;;;;;;;;;;;;;;6238392;22;19923;-87
2023/10/06 04:57:29;;;;;;;;;;;;;;;;;;6238911;22;19926;-87
2023/10/06 04:59:55;;;;;;;;;;;;;;;;;;6213233;22;20337;-87
2023/10/06 05:02:23;;;;;;;;;;;;;;;;;;6212790;22;19920;-87
2023/10/06 05:04:52;;;;;;;;;;;;;;;;;;6211539;22;19919;-87
2023/10/06 05:07:18;;;;;;;;;;;;;;;;;;6212781;22;19931;-88
2023/10/06 05:09:44;;;;;;;;;;;;;;;;;;6213033;22;19926;-88
2023/10/06 05:12:11;;;;;;;;;;;;;;;;;;6236769;22;19968;-88
2023/10/06 05:14:38;;;;;;;;;;;;;;;;;;6211013;22;19915;-87
2023/10/06 05:17:04;;;;;;;;;;;;;;;;;;6211450;22;20006;-88
2023/10/06 05:19:34;;;;;;;;;;;;;;;;;;6212572;22;19923;-88
2023/10/06 05:22:03;;;;;;;;;;;;;;;;;;6213074;22;19941;-87
2023/10/06 05:24:33;;;;;;;;;;;;;;;;;;6210708;22;20002;-88
2023/10/06 05:27:02;;;;;;;;;;;;;;;;;;6237947;22;20342;-88
2023/10/06 05:29:31;;;;;;;;;;;;;;;;;;6265972;22;19926;-89
2023/10/06 05:31:56;;;;;;;;;;;;;;;;;;6232932;22;20032;-88
2023/10/06 05:34:24;;;;;;;;;;;;;;;;;;6207690;22;20014;-88
2023/10/06 05:36:50;;;;;;;;;;;;;;;;;;6235770;22;19961;-88
2023/10/06 05:39:17;;;;;;;;;;;;;;;;;;6220989;22;19930;-88
2023/10/06 05:41:44;;;;;;;;;;;;;;;;;;6219249;22;20006;-88
2023/10/06 05:44:12;;;;;;;;;;;;;;;;;;6212154;22;20335;-88
2023/10/06 05:46:38;;;;;;;;;;;;;;;;;;6232207;22;19927;-88
2023/10/06 05:49:04;;;;;;;;;;;;;;;;;;6210801;22;19919;-87
2023/10/06 05:51:33;;;;;;;;;;;;;;;;;;6259776;22;19919;-88
2023/10/06 05:53:59;;;;;;;;;;;;;;;;;;6234145;22;20018;-88
2023/10/06 05:56:27;;;;;;;;;;;;;;;;;;6211383;22;19950;-87
2023/10/06 05:58:53;;;;;;;;;;;;;;;;;;6235483;22;19926;-87
2023/10/06 06:01:20;;;;;;;;;;;;;;;;;;6235781;22;19919;-88
2023/10/06 06:03:46;;;;;;;;;;;;;;;;;;6231092;22;19930;-88
2023/10/06 06:06:15;;;;;;;;;;;;;;;;;;6211511;22;19927;-88
2023/10/06 06:08:43;;;;;;;;;;;;;;;;;;6235658;22;19919;-88
2023/10/06 06:11:09;;;;;;;;;;;;;;;;;;6210147;22;20394;-87
2023/10/06 06:13:38;;;;;;;;;;;;;;;;;;6263097;22;19923;-87
2023/10/06 06:16:07;;;;;;;;;;;;;;;;;;6211831;22;20388;-87
2023/10/06 06:18:34;;;;;;;;;;;;;;;;;;6208908;22;19980;-87
2023/10/06 06:21:02;;;;;;;;;;;;;;;;;;6237295;22;19923;-88
2023/10/06 06:23:28;;;;;;;;;;;;;;;;;;6234422;22;19977;-87
2023/10/06 06:25:54;;;;;;;;;;;;;;;;;;6233057;22;19919;-88
2023/10/06 06:28:21;;;;;;;;;;;;;;;;;;6211507;22;19919;-88
2023/10/06 06:30:47;;;;;;;;;;;;;;;;;;6209025;22;19919;-87
2023/10/06 06:33:17;;;;;;;;;;;;;;;;;;6262923;22;19919;-87
2023/10/06 06:35:43;;;;;;;;;;;;;;;;;;6208246;22;19919;-87
2023/10/06 06:38:12;;;;;;;;;;;;;;;;;;6264520;22;20343;-87
2023/10/06 06:40:38;;;;;;;;;;;;;;;;;;6232814;22;19919;-87
2023/10/06 06:43:09;;;;;;;;;;;;;;;;;;6236899;22;20358;-87
2023/10/06 06:45:39;;;;;;;;;;;;;;;;;;6261537;22;19919;-88
2023/10/06 06:48:09;;;;;;;;;;;;;;;;;;6212847;22;19969;-87
2023/10/06 06:50:37;;;;;;;;;;;;;;;;;;6262725;22;19926;-88
2023/10/06 06:53:04;;;;;;;;;;;;;;;;;;6239757;22;19915;-88
2023/10/06 06:55:32;;;;;;;;;;;;;;;;;;6264237;22;19930;-88
2023/10/06 06:58:05;;;;;;;;;;;;;;;;;;6238657;22;19968;-87
2023/10/06 07:00:31;;;;;;;;;;;;;;;;;;6211033;22;20306;-88
2023/10/06 07:02:58;;;;;;;;;;;;;;;;;;6267191;22;19919;-87
2023/10/06 07:05:24;;;;;;;;;;;;;;;;;;6239518;22;19926;-88
2023/10/06 07:07:51;;;;;;;;;;;;;;;;;;6237817;22;20411;-88
2023/10/06 07:10:19;;;;;;;;;;;;;;;;;;6267540;22;19919;-87
2023/10/06 07:12:45;;;;;;;;;;;;;;;;;;6213009;22;19923;-87
2023/10/06 07:15:14;;;;;;;;;;;;;;;;;;6238221;22;19992;-87
2023/10/06 07:17:40;;;;;;;;;;;;;;;;;;6236173;22;19926;-87
2023/10/06 07:20:09;;;;;;;;;;;;;;;;;;6239393;22;19924;-87
2023/10/06 07:22:36;;;;;;;;;;;;;;;;;;6237292;22;19974;-87
2023/10/06 07:25:04;;;;;;;;;;;;;;;;;;6236351;22;20221;-87
2023/10/06 07:27:34;;;;;;;;;;;;;;;;;;6213170;22;19923;-87
2023/10/06 07:30:04;;;;;;;;;;;;;;;;;;6239331;22;20295;-88
2023/10/06 07:32:33;;;;;;;;;;;;;;;;;;6238216;22;20351;-87
2023/10/06 07:34:59;;;;;;;;;;;;;;;;;;6263236;22;19958;-86
2023/10/06 07:37:25;;;;;;;;;;;;;;;;;;6237129;22;20255;-87
2023/10/06 07:39:51;;;;;;;;;;;;;;;;;;6233795;22;19920;-87
2023/10/06 07:42:18;;;;;;;;;;;;;;;;;;6262975;22;19923;-87
2023/10/06 07:44:45;;;;;;;;;;;;;;;;;;6235654;22;19920;-87
2023/10/06 07:47:11;;;;;;;;;;;;;;;;;;6212186;22;20289;-87
2023/10/06 07:49:40;;;;;;;;;;;;;;;;;;6208647;22;19919;-87
2023/10/06 07:52:07;;;;;;;;;;;;;;;;;;6210925;22;19919;-88
2023/10/06 07:54:33;;;;;;;;;;;;;;;;;;6209014;22;19915;-88
2023/10/06 07:56:59;;;;;;;;;;;;;;;;;;6236568;22;19919;-88
2023/10/06 07:59:25;;;;;;;;;;;;;;;;;;6234870;22;20445;-87
2023/10/06 08:01:51;;;;;;;;;;;;;;;;;;6232731;22;19926;-87
2023/10/06 08:04:18;;;;;;;;;;;;;;;;;;6235421;22;19923;-87
2023/10/06 08:06:45;;;;;;;;;;;;;;;;;;6208961;22;19923;-87
2023/10/06 08:09:11;;;;;;;;;;;;;;;;;;6212960;22;19938;-87
2023/10/06 08:11:39;;;;;;;;;;;;;;;;;;6234849;22;19919;-87
2023/10/06 08:14:06;;;;;;;;;;;;;;;;;;6265182;22;20337;-87
2023/10/06 08:16:33;;;;;;;;;;;;;;;;;;6234780;22;19919;-88
2023/10/06 08:19:00;;;;;;;;;;;;;;;;;;6214091;22;19919;-88
2023/10/06 08:21:25;;;;;;;;;;;;;;;;;;6240948;22;19919;-87
2023/10/06 08:23:51;;;;;;;;;;;;;;;;;;6211821;22;19958;-87
2023/10/06 08:26:17;;;;;;;;;;;;;;;;;;6212545;22;19927;-87
2023/10/06 08:28:45;;;;;;;;;;;;;;;;;;6238262;22;19965;-87
2023/10/06 08:31:11;;;;;;;;;;;;;;;;;;6213173;22;19919;-87
2023/10/06 08:33:38;;;;;;;;;;;;;;;;;;6237308;22;19919;-91
2023/10/06 08:36:08;;;;;;;;;;;;;;;;;;6238629;22;19919;-87
2023/10/06 08:38:34;;;;;;;;;;;;;;;;;;6234661;22;19919;-88
2023/10/06 08:41:00;;;;;;;;;;;;;;;;;;6237982;22;19919;-88
2023/10/06 08:43:27;;;;;;;;;;;;;;;;;;6235399;22;20033;-87
2023/10/06 08:45:54;;;;;;;;;;;;;;;;;;6208852;22;19923;-87
2023/10/06 08:48:19;;;;;;;;;;;;;;;;;;6236448;22;20022;-87
2023/10/06 08:50:45;;;;;;;;;;;;;;;;;;6235919;22;19951;-87
2023/10/06 08:53:13;;;;;;;;;;;;;;;;;;6236566;22;19916;-88
2023/10/06 08:55:40;;;;;;;;;;;;;;;;;;6233521;22;20150;-87
2023/10/06 08:58:13;;;;;;;;;;;;;;;;;;6236743;22;19919;-88
2023/10/06 09:00:43;;;;;;;;;;;;;;;;;;6235800;22;20157;-88
2023/10/06 09:03:11;;;;;;;;;;;;;;;;;;6209888;22;19919;-87
2023/10/06 09:05:37;;;;;;;;;;;;;;;;;;6234364;22;19920;-87
2023/10/06 09:08:07;;;;;;;;;;;;;;;;;;6235335;22;20286;-87
2023/10/06 09:10:33;;;;;;;;;;;;;;;;;;6236354;22;19919;-88
2023/10/06 09:13:00;;;;;;;;;;;;;;;;;;6236621;22;19990;-87
2023/10/06 09:15:26;;;;;;;;;;;;;;;;;;6209344;22;20345;-87
2023/10/06 09:17:53;;;;;;;;;;;;;;;;;;6208324;22;19957;-88
2023/10/06 09:20:19;;;;;;;;;;;;;;;;;;6207693;22;19927;-87
2023/10/06 09:22:45;;;;;;;;;;;;;;;;;;6234359;22;19926;-87
2023/10/06 09:25:11;;;;;;;;;;;;;;;;;;6214205;22;19923;-88
2023/10/06 09:27:38;;;;;;;;;;;;;;;;;;6231201;22;19931;-88
2023/10/06 09:30:07;;;;;;;;;;;;;;;;;;6263132;22;20342;-87
2023/10/06 09:32:34;;;;;;;;;;;;;;;;;;6261940;22;20294;-88
2023/10/06 09:35:03;;;;;;;;;;;;;;;;;;6236139;22;19919;-86
2023/10/06 09:37:29;;;;;;;;;;;;;;;;;;6265745;22;20280;-88
2023/10/06 09:39:56;;;;;;;;;;;;;;;;;;6212937;22;19915;-87
2023/10/06 09:42:24;;;;;;;;;;;;;;;;;;6260450;22;19930;-88
2023/10/06 09:44:50;;;;;;;;;;;;;;;;;;6230731;22;20383;-87
2023/10/06 09:47:16;;;;;;;;;;;;;;;;;;6209163;22;19926;-87
2023/10/06 09:49:42;;;;;;;;;;;;;;;;;;6204414;22;20620;-88
2023/10/06 09:52:08;;;;;;;;;;;;;;;;;;6259909;22;20259;-88
2023/10/06 09:54:33;;;;;;;;;;;;;;;;;;6206384;22;20534;-88
2023/10/06 09:56:59;;;;;;;;;;;;;;;;;;6234479;22;19919;-87
2023/10/06 09:59:26;;;;;;;;;;;;;;;;;;6258044;22;19919;-87
2023/10/06 10:01:51;;;;;;;;;;;;;;;;;;6225406;22;19919;-89
2023/10/06 10:04:19;;;;;;;;;;;;;;;;;;6201687;22;20241;-88
2023/10/06 10:06:45;;;;;;;;;;;;;;;;;;6201125;22;19961;-88
2023/10/06 10:09:15;;;;;;;;;;;;;;;;;;6207396;22;20364;-88
2023/10/06 10:11:41;;;;;;;;;;;;;;;;;;6233226;22;19926;-89
2023/10/06 10:14:07;;;;;;;;;;;;;;;;;;6211109;22;20282;-89
2023/10/06 10:16:33;;;;;;;;;;;;;;;;;;6235448;22;20389;-89
2023/10/06 10:18:59;;;;;;;;;;;;;;;;;;6237972;22;20015;-88
2023/10/06 10:21:25;;;;;;;;;;;;;;;;;;6212568;22;19926;-88
2023/10/06 10:23:51;;;;;;;;;;;;;;;;;;6209458;22;20094;-88
2023/10/06 10:26:18;;;;;;;;;;;;;;;;;;6211316;22;19928;-88
2023/10/06 10:28:44;;;;;;;;;;;;;;;;;;6233102;22;19990;-89
2023/10/06 10:31:17;;;;;;;;;;;;;;;;;;6213151;22;19977;-88
2023/10/06 10:33:43;;;;;;;;;;;;;;;;;;6211968;22;19919;-88
2023/10/06 10:36:09;;;;;;;;;;;;;;;;;;6212900;22;19950;-88
2023/10/06 10:38:35;;;;;;;;;;;;;;;;;;6212319;22;19919;-89
2023/10/06 10:41:01;;;;;;;;;;;;;;;;;;6214390;22;19941;-88
2023/10/06 10:43:27;;;;;;;;;;;;;;;;;;6213336;22;19925;-88
2023/10/06 10:45:53;;;;;;;;;;;;;;;;;;6235367;22;19931;-88
2023/10/06 10:48:21;;;;;;;;;;;;;;;;;;6213028;22;19923;-87
2023/10/06 10:50:47;;;;;;;;;;;;;;;;;;6211623;22;19923;-89
2023/10/06 10:53:14;;;;;;;;;;;;;;;;;;6214207;22;20320;-88
2023/10/06 10:55:40;;;;;;;;;;;;;;;;;;6211417;22;20010;-88
2023/10/06 10:58:09;;;;;;;;;;;;;;;;;;6211954;22;19919;-89
2023/10/06 11:00:35;;;;;;;;;;;;;;;;;;6209808;22;19953;-88
2023/10/06 11:03:03;;;;;;;;;;;;;;;;;;6213247;22;19979;-89
2023/10/06 11:05:29;;;;;;;;;;;;;;;;;;6216550;22;19930;-89
2023/10/06 11:07:55;;;;;;;;;;;;;;;;;;6236427;22;19923;-88
2023/10/06 11:10:22;;;;;;;;;;;;;;;;;;6235640;22;19973;-89
2023/10/06 11:12:50;;;;;;;;;;;;;;;;;;6207832;22;19919;-89
2023/10/06 11:15:18;;;;;;;;;;;;;;;;;;6207718;22;20351;-90
2023/10/06 11:17:45;;;;;;;;;;;;;;;;;;6209059;22;19915;-89
2023/10/06 11:20:16;;;;;;;;;;;;;;;;;;6212829;22;19927;-89
2023/10/06 11:22:42;;;;;;;;;;;;;;;;;;6209494;22;19969;-89
2023/10/06 11:25:10;;;;;;;;;;;;;;;;;;6234831;22;19953;-89
2023/10/06 11:27:39;;;;;;;;;;;;;;;;;;6209510;22;20002;-88
2023/10/06 11:30:08;;;;;;;;;;;;;;;;;;6209003;22;19946;-88
2023/10/06 11:32:34;;;;;;;;;;;;;;;;;;6207723;22;19919;-88
2023/10/06 11:35:00;;;;;;;;;;;;;;;;;;6209695;22;20471;-88
2023/10/06 11:37:28;;;;;;;;;;;;;;;;;;6211557;22;19954;-87
2023/10/06 11:39:57;;;;;;;;;;;;;;;;;;6214640;22;19926;-88
2023/10/06 11:42:23;;;;;;;;;;;;;;;;;;6214869;22;19915;-88
2023/10/06 11:44:52;;;;;;;;;;;;;;;;;;6212826;22;19915;-88
2023/10/06 11:47:18;;;;;;;;;;;;;;;;;;6238303;22;19919;-88
2023/10/06 11:49:44;;;;;;;;;;;;;;;;;;6209241;22;19919;-88
2023/10/06 11:52:11;;;;;;;;;;;;;;;;;;6215394;22;19965;-88
2023/10/06 11:54:37;;;;;;;;;;;;;;;;;;6213828;22;19962;-88
2023/10/06 11:57:03;;;;;;;;;;;;;;;;;;6215911;22;20231;-88
2023/10/06 11:59:33;;;;;;;;;;;;;;;;;;6213618;22;19918;-88
2023/10/06 12:01:59;;;;;;;;;;;;;;;;;;6214281;22;19922;-88
2023/10/06 12:04:31;;;;;;;;;;;;;;;;;;6213154;22;20256;-89
2023/10/06 12:06:58;;;;;;;;;;;;;;;;;;6238652;22;20355;-89
2023/10/06 12:09:24;;;;;;;;;;;;;;;;;;6239778;22;19919;-88
2023/10/06 12:11:50;;;;;;;;;;;;;;;;;;6211394;22;20850;-88
2023/10/06 12:14:16;;;;;;;;;;;;;;;;;;6214177;22;19919;-88
2023/10/06 12:16:44;;;;;;;;;;;;;;;;;;6238315;22;19930;-88
2023/10/06 12:19:11;;;;;;;;;;;;;;;;;;6240107;22;19994;-88
2023/10/06 12:21:37;;;;;;;;;;;;;;;;;;6212305;22;19915;-88
2023/10/06 12:24:03;;;;;;;;;;;;;;;;;;6215941;22;19919;-88
2023/10/06 12:26:32;;;;;;;;;;;;;;;;;;6212763;22;19923;-88
2023/10/06 12:28:58;;;;;;;;;;;;;;;;;;6237956;22;20024;-88
2023/10/06 12:31:24;;;;;;;;;;;;;;;;;;6235313;22;19977;-88
2023/10/06 12:33:55;;;;;;;;;;;;;;;;;;6236994;22;19919;-88
2023/10/06 12:36:21;;;;;;;;;;;;;;;;;;6213535;22;20297;-88
2023/10/06 12:38:47;;;;;;;;;;;;;;;;;;6212168;22;20256;-88
2023/10/06 12:41:13;;;;;;;;;;;;;;;;;;6214397;22;19920;-88
2023/10/06 12:43:39;;;;;;;;;;;;;;;;;;6237278;22;19934;-89
2023/10/06 12:46:08;;;;;;;;;;;;;;;;;;6212343;22;20369;-87
2023/10/06 12:48:38;;;;;;;;;;;;;;;;;;6234530;22;19919;-88
2023/10/06 12:51:07;;;;;;;;;;;;;;;;;;6214569;22;19919;-88
2023/10/06 12:53:37;;;;;;;;;;;;;;;;;;6233927;22;20390;-89
2023/10/06 12:56:04;;;;;;;;;;;;;;;;;;6210320;22;19923;-88
2023/10/06 12:58:30;;;;;;;;;;;;;;;;;;6209448;22;19923;-88
2023/10/06 13:00:56;;;;;;;;;;;;;;;;;;6209101;22;20294;-89
2023/10/06 13:03:24;;;;;;;;;;;;;;;;;;6211836;22;19915;-89
2023/10/06 13:05:50;;;;;;;;;;;;;;;;;;6209059;22;20018;-90
2023/10/06 13:08:17;;;;;;;;;;;;;;;;;;6213075;22;19947;-89
2023/10/06 13:10:43;;;;;;;;;;;;;;;;;;6207716;22;19962;-89
2023/10/06 13:13:09;;;;;;;;;;;;;;;;;;6207694;22;19926;-87
2023/10/06 13:15:35;;;;;;;;;;;;;;;;;;6231630;22;19919;-89
2023/10/06 13:18:01;;;;;;;;;;;;;;;;;;6233670;22;19926;-88
2023/10/06 13:20:27;;;;;;;;;;;;;;;;;;6262754;22;19927;-88
2023/10/06 13:22:53;;;;;;;;;;;;;;;;;;6204614;22;20043;-88
2023/10/06 13:25:19;;;;;;;;;;;;;;;;;;6229816;22;19923;-88
2023/10/06 13:27:48;;;;;;;;;;;;;;;;;;6203251;22;19976;-87
2023/10/06 13:30:14;;;;;;;;;;;;;;;;;;6205880;22;20304;-86
2023/10/06 13:32:41;;;;;;;;;;;;;;;;;;6202057;22;20701;-87
2023/10/06 13:35:11;;;;;;;;;;;;;;;;;;6206917;22;19959;-87
2023/10/06 13:37:37;;;;;;;;;;;;;;;;;;6203085;22;20323;-87
2023/10/06 13:40:04;;;;;;;;;;;;;;;;;;6205176;22;19925;-87
2023/10/06 13:42:30;;;;;;;;;;;;;;;;;;6205741;22;20315;-86
2023/10/06 13:44:56;;;;;;;;;;;;;;;;;;6255568;22;19969;-87
2023/10/06 13:47:22;;;;;;;;;;;;;;;;;;6228738;22;19924;-86
2023/10/06 14:12:01;;;;;;;;;;;;;;;;;;5947841;23;19978;-88
2023/10/06 14:15:09;;;;;;;;;;;;;;;;;;;;;
2023/10/06 14:24:53;;;;;;;;;;;;;;;;;;5951940;23;20515;-87
2023/10/06 14:27:11;;;;;;;;;;;;;;;;;;5936988;24;19923;-86
2023/10/06 14:32:44;;;;;;;;;;;;;;;;;;6196294;23;19923;-85
2023/10/06 14:35:33;;;;;;;;;;;;;;;;;;6146726;23;19930;-85
2023/10/06 14:45:57;;;;;;;;;;;;;;;;;;6170660;23;20323;-85
2023/10/06 14:46:42;;;;;;;;;;;;;;;;;;6169264;23;20404;-85
2023/10/06 14:49:12;;;;;;;;;;;;;;;;;;6174053;23;20320;-85
2023/10/06 14:51:38;;;;;;;;;;;;;;;;;;6168512;23;20005;-85
2023/10/06 14:54:07;;;;;;;;;;;;;;;;;;6172289;23;19919;-85
2023/10/06 14:56:33;;;;;;;;;;;;;;;;;;6169857;23;20229;-85
2023/10/06 14:58:59;;;;;;;;;;;;;;;;;;6146068;23;19994;-85
2023/10/06 15:01:30;;;;;;;;;;;;;;;;;;6150890;23;20519;-85
2023/10/06 15:03:59;;;;;;;;;;;;;;;;;;6140351;23;20396;-85
2023/10/06 15:06:25;;;;;;;;;;;;;;;;;;6119203;23;20006;-86
2023/10/06 15:08:54;;;;;;;;;;;;;;;;;;6113266;23;19967;-85
2023/10/06 15:11:20;;;;;;;;;;;;;;;;;;6142335;23;19927;-85
2023/10/06 15:13:47;;;;;;;;;;;;;;;;;;6140475;23;19920;-85
2023/10/06 15:16:13;;;;;;;;;;;;;;;;;;6145446;23;20429;-85
2023/10/06 15:18:42;;;;;;;;;;;;;;;;;;6139768;23;19920;-85
2023/10/06 15:21:08;;;;;;;;;;;;;;;;;;6176482;23;19989;-85
2023/10/06 15:23:34;;;;;;;;;;;;;;;;;;6172563;23;20503;-85
2023/10/06 15:26:03;;;;;;;;;;;;;;;;;;6171070;23;19931;-85
2023/10/06 15:28:30;;;;;;;;;;;;;;;;;;6172159;23;19920;-86
2023/10/06 15:30:56;;;;;;;;;;;;;;;;;;6149109;23;19924;-85
2023/10/06 15:33:22;;;;;;;;;;;;;;;;;;6174164;23;19930;-85
2023/10/06 15:35:48;;;;;;;;;;;;;;;;;;6171454;23;19920;-85
2023/10/06 15:38:19;;;;;;;;;;;;;;;;;;6148106;23;20680;-85
2023/10/06 15:40:46;;;;;;;;;;;;;;;;;;6172445;23;20511;-85
2023/10/06 15:43:12;;;;;;;;;;;;;;;;;;6149220;23;19923;-85
2023/10/06 15:45:39;;;;;;;;;;;;;;;;;;6174104;23;19923;-85
2023/10/06 15:48:09;;;;;;;;;;;;;;;;;;6128256;23;19924;-88
2023/10/06 15:50:35;;;;;;;;;;;;;;;;;;6111112;23;20294;-88
2023/10/06 15:53:01;;;;;;;;;;;;;;;;;;6090871;23;19955;-88
2023/10/06 15:58:08;;;;;;;;;;;;;;;;;;6149041;23;19924;-89
2023/10/06 16:04:02;;;;;;;;;;;;;;;;;;6176089;23;19915;-89
2023/10/06 16:06:34;;;;;;;;;;;;;;;;;;6141084;23;19979;-89
2023/10/06 16:09:00;;;;;;;;;;;;;;;;;;6143338;23;20312;-89
2023/10/06 16:11:26;;;;;;;;;;;;;;;;;;6142839;23;19931;-91
2023/10/06 16:13:52;;;;;;;;;;;;;;;;;;6117296;23;19924;-88
2023/10/06 16:16:20;;;;;;;;;;;;;;;;;;6144953;23;19967;-89
2023/10/06 16:18:46;;;;;;;;;;;;;;;;;;6143177;23;20406;-88
2023/10/06 16:21:13;;;;;;;;;;;;;;;;;;6203277;23;19958;-89
2023/10/06 16:23:41;;;;;;;;;;;;;;;;;;6147947;23;19916;-88
2023/10/06 16:26:09;;;;;;;;;;;;;;;;;;6151428;23;20175;-88
2023/10/06 16:28:35;;;;;;;;;;;;;;;;;;6152356;23;19920;-88
2023/10/06 16:31:01;;;;;;;;;;;;;;;;;;6152619;23;20335;-89
2023/10/06 16:33:27;;;;;;;;;;;;;;;;;;6152712;23;19920;-88
2023/10/06 16:35:53;;;;;;;;;;;;;;;;;;6171357;23;19922;-88
2023/10/06 16:38:22;;;;;;;;;;;;;;;;;;6174539;23;19921;-88
2023/10/06 16:40:48;;;;;;;;;;;;;;;;;;6148591;23;19920;-88
2023/10/06 16:43:16;;;;;;;;;;;;;;;;;;6150621;23;19923;-88
2023/10/06 16:45:42;;;;;;;;;;;;;;;;;;6149084;23;20385;-89
2023/10/06 16:48:14;;;;;;;;;;;;;;;;;;6152012;23;19932;-89
2023/10/06 16:50:41;;;;;;;;;;;;;;;;;;6171885;23;19927;-88
2023/10/06 16:53:10;;;;;;;;;;;;;;;;;;6151789;23;19926;-89
2023/10/06 16:55:36;;;;;;;;;;;;;;;;;;6149691;23;19923;-88
2023/10/06 16:58:02;;;;;;;;;;;;;;;;;;6164545;23;19931;-88
2023/10/06 17:00:28;;;;;;;;;;;;;;;;;;6212400;23;20362;-88
2023/10/06 17:02:54;;;;;;;;;;;;;;;;;;6200804;23;19916;-88
2023/10/06 17:05:24;;;;;;;;;;;;;;;;;;6207562;23;19923;-88
2023/10/06 17:07:50;;;;;;;;;;;;;;;;;;6204695;23;19934;-89
2023/10/06 17:10:16;;;;;;;;;;;;;;;;;;6210048;23;19923;-88
2023/10/06 17:12:42;;;;;;;;;;;;;;;;;;6180851;23;19947;-88
2023/10/06 17:15:10;;;;;;;;;;;;;;;;;;6208476;23;19926;-89
2023/10/06 17:17:37;;;;;;;;;;;;;;;;;;6203688;23;20295;-89
2023/10/06 17:20:03;;;;;;;;;;;;;;;;;;6179222;23;19995;-88
2023/10/06 17:22:40;;;;;;;;;;;;;;;;;;6204123;23;19916;-88
2023/10/06 17:25:23;;;;;;;;;;;;;;;;;;6184183;23;20343;-88
2023/10/06 17:28:07;;;;;;;;;;;;;;;;;;6188700;23;20321;-89
2023/10/06 17:30:35;;;;;;;;;;;;;;;;;;6197329;23;20001;-89
2023/10/06 17:33:01;;;;;;;;;;;;;;;;;;6203205;23;19968;-88
2023/10/06 17:35:28;;;;;;;;;;;;;;;;;;6173500;23;19927;-89
2023/10/06 17:37:57;;;;;;;;;;;;;;;;;;6172382;23;19915;-89
2023/10/06 17:48:56;;;;;;;;;;;;;;;;;;6171656;23;19959;-88
2023/10/06 17:51:34;;;;;;;;;;;;;;;;;;6148790;23;19920;-87
2023/10/06 17:54:02;;;;;;;;;;;;;;;;;;6147079;23;19924;-86